Sycamore, Kansas
Current Conditions -  °F | °C
As of 12:52 PM on Thursday 23 Oct 2014 (Local Time) from KPPF Reporting Station
Overcast Overcast  
Wind Chill: 64°   Ceiling: 1500
Heat Index: 64°   Visibility: 10mi
Dew Point: 58°   Wind: 9mph
Humidity: 80%   Direction: 190°S
Pressure: 30.15"   Gusts: NA
Location:  37.33°N, 95.72°W
Report Text: KPPF 231752Z AUTO 19008KT 10SM OVC015 18/14 A3015 RMK AO2 SLP204 T01780144 10178 20150 58003
Loading
Personal Weather Stations






























Interactive Weather Map
Tropical Storm Tracking
New forecast layout! Learn more

10-Day Weather Forecast

Advertisements
Track Severe Weather on mobile